createdAt,value
2023-05-06T00:00:01.573Z,9.95
2023-05-06T00:01:07.955Z,11.05
2023-05-06T00:02:11.644Z,10.82
2023-05-06T00:03:14.824Z,11.48
2023-05-06T00:04:18.657Z,11.75
2023-05-06T00:05:22.985Z,10.82
2023-05-06T00:06:27.688Z,11.45
2023-05-06T00:07:30.825Z,11.38
2023-05-06T00:08:34.462Z,10.00
2023-05-06T00:10:40.655Z,9.93
2023-05-06T00:11:43.430Z,9.50
2023-05-06T00:12:47.484Z,8.73
2023-05-06T00:13:50.306Z,8.00
2023-05-06T00:14:53.941Z,9.30
2023-05-06T00:15:56.754Z,8.18
2023-05-06T00:17:00.417Z,8.77
2023-05-06T00:18:03.429Z,8.85
2023-05-06T00:19:07.684Z,7.43
2023-05-06T00:20:11.238Z,7.65
2023-05-06T00:21:16.560Z,8.10
2023-05-06T00:22:19.198Z,7.78
2023-05-06T00:23:22.950Z,8.52
2023-05-06T00:24:25.704Z,8.60
2023-05-06T00:25:29.390Z,8.68
2023-05-06T00:26:32.273Z,8.40
2023-05-06T00:27:36.096Z,7.85
2023-05-06T00:28:38.773Z,7.82
2023-05-06T00:29:42.445Z,8.40
2023-05-06T00:30:45.098Z,6.93
2023-05-06T00:31:50.268Z,6.70
2023-05-06T00:32:53.148Z,6.63
2023-05-06T00:33:56.979Z,7.20
2023-05-06T00:34:59.597Z,5.68
2023-05-06T00:36:03.235Z,6.32
2023-05-06T00:37:07.543Z,6.65
2023-05-06T00:38:13.542Z,5.63
2023-05-06T00:39:16.711Z,5.25
2023-05-06T00:40:20.349Z,3.53
2023-05-06T00:41:23.360Z,3.78
2023-05-06T00:42:27.231Z,3.78
2023-05-06T00:43:29.927Z,3.75
2023-05-06T00:44:33.701Z,3.40
2023-05-06T00:45:37.061Z,4.00
2023-05-06T00:46:41.878Z,3.90
2023-05-06T00:47:45.273Z,4.05
2023-05-06T00:48:49.052Z,4.35
2023-05-06T00:49:52.029Z,4.60
2023-05-06T00:50:55.978Z,4.35
2023-05-06T00:51:59.775Z,5.28
2023-05-06T00:54:08.530Z,4.93
2023-05-06T00:55:12.366Z,5.32
2023-05-06T00:56:15.826Z,4.80
2023-05-06T00:57:19.767Z,5.07
2023-05-06T00:58:22.850Z,6.05
2023-05-06T00:59:26.630Z,4.88
2023-05-06T01:00:29.362Z,5.47
2023-05-06T01:01:33.567Z,4.85
2023-05-06T01:02:46.558Z,5.40
2023-05-06T01:03:52.359Z,4.90
2023-05-06T01:04:55.891Z,4.75
2023-05-06T01:06:09.200Z,4.55
2023-05-06T01:07:23.817Z,4.43
2023-05-06T01:08:34.346Z,3.75
2023-05-06T01:09:43.104Z,3.92
2023-05-06T01:10:52.539Z,4.10
2023-05-06T01:12:02.785Z,4.20
2023-05-06T01:13:13.837Z,3.83
2023-05-06T01:14:26.726Z,3.45
2023-05-06T01:15:36.042Z,3.80
2023-05-06T01:16:41.738Z,3.72
2023-05-06T01:17:47.475Z,3.92
2023-05-06T01:18:51.952Z,3.47
2023-05-06T01:20:00.214Z,3.78
2023-05-06T01:21:05.512Z,4.07
2023-05-06T01:22:09.849Z,3.80
2023-05-06T01:23:15.101Z,3.90
2023-05-06T01:24:19.169Z,3.20
2023-05-06T01:26:28.568Z,3.35
2023-05-06T01:27:31.239Z,3.42
2023-05-06T01:28:34.823Z,3.70
2023-05-06T01:30:48.672Z,3.15
2023-05-06T01:31:52.927Z,3.33
2023-05-06T01:33:05.742Z,3.80
2023-05-06T01:34:14.672Z,3.25
2023-05-06T01:35:22.784Z,3.13
2023-05-06T01:36:33.582Z,3.13
2023-05-06T01:37:43.647Z,3.30
2023-05-06T01:38:53.549Z,3.05
2023-05-06T01:40:01.643Z,3.30
2023-05-06T01:41:08.611Z,3.35
2023-05-06T01:42:15.673Z,3.10
2023-05-06T01:43:19.994Z,2.95
2023-05-06T01:44:24.695Z,3.45
2023-05-06T01:45:31.093Z,3.47
2023-05-06T01:46:35.524Z,3.55
2023-05-06T01:47:39.936Z,3.70
2023-05-06T01:48:46.965Z,3.40
2023-05-06T01:49:49.956Z,3.17
2023-05-06T01:50:53.820Z,3.10
2023-05-06T01:51:56.797Z,3.42
2023-05-06T01:53:01.219Z,3.53
2023-05-06T01:54:06.241Z,3.22
2023-05-06T01:55:10.758Z,3.55
2023-05-06T01:56:14.000Z,3.85
2023-05-06T01:57:17.715Z,3.90
2023-05-06T01:58:20.840Z,3.83
2023-05-06T01:59:24.409Z,3.20
2023-05-06T02:01:30.874Z,3.17
2023-05-06T02:02:33.680Z,3.40
2023-05-06T02:03:37.814Z,3.70
2023-05-06T02:04:40.628Z,3.97
2023-05-06T02:05:44.446Z,3.20
2023-05-06T02:06:47.205Z,2.97
2023-05-06T02:07:50.869Z,2.95
2023-05-06T02:11:01.174Z,3.03
2023-05-06T02:12:05.336Z,2.92
2023-05-06T02:13:08.530Z,2.97
2023-05-06T02:14:12.415Z,2.65
2023-05-06T02:16:18.417Z,3.38
2023-05-06T02:17:21.207Z,3.00
2023-05-06T02:18:25.636Z,3.08
2023-05-06T02:19:28.603Z,2.97
2023-05-06T02:20:32.229Z,3.10
2023-05-06T02:21:54.721Z,3.42
2023-05-06T02:22:58.308Z,3.30
2023-05-06T02:24:00.889Z,3.30
2023-05-06T02:25:06.824Z,4.15
2023-05-06T02:26:09.430Z,4.13
2023-05-06T02:27:13.180Z,3.15
2023-05-06T02:28:15.799Z,3.53
2023-05-06T02:29:19.789Z,3.63
2023-05-06T02:31:26.015Z,3.10
2023-05-06T02:32:28.828Z,3.15
2023-05-06T02:33:32.520Z,3.05
2023-05-06T02:34:35.206Z,3.00
2023-05-06T02:35:38.860Z,3.63
2023-05-06T02:37:44.576Z,3.03
2023-05-06T02:39:51.023Z,2.60
2023-05-06T02:40:55.209Z,3.00
2023-05-06T02:41:58.826Z,2.78
2023-05-06T02:44:05.587Z,3.13
2023-05-06T02:45:09.684Z,3.78
2023-05-06T02:46:14.269Z,3.10
2023-05-06T02:47:16.938Z,3.20
2023-05-06T02:48:20.689Z,3.47
2023-05-06T02:49:23.366Z,3.60
2023-05-06T02:50:26.943Z,3.28
2023-05-06T02:52:33.578Z,3.78
2023-05-06T02:53:36.252Z,3.33
2023-05-06T02:54:39.907Z,3.53
2023-05-06T02:56:47.333Z,3.33
2023-05-06T02:57:50.055Z,3.75
2023-05-06T02:58:54.717Z,3.72
2023-05-06T02:59:57.519Z,3.60
2023-05-06T03:01:01.194Z,3.70
2023-05-06T03:02:03.980Z,3.30
2023-05-06T03:03:07.867Z,4.20
2023-05-06T03:04:10.670Z,3.40
2023-05-06T03:05:14.348Z,3.15
2023-05-06T03:06:17.190Z,3.50
2023-05-06T03:07:20.874Z,4.07
2023-05-06T03:08:23.496Z,4.00
2023-05-06T03:09:27.180Z,3.78
2023-05-06T03:10:30.056Z,4.10
2023-05-06T03:11:34.210Z,4.72
2023-05-06T03:12:38.713Z,4.65
2023-05-06T03:13:42.338Z,4.00
2023-05-06T03:15:54.567Z,3.88
2023-05-06T03:16:57.469Z,3.85
2023-05-06T03:18:01.299Z,3.53
2023-05-06T03:19:04.160Z,3.72
2023-05-06T03:20:09.972Z,3.08
2023-05-06T03:21:13.027Z,4.20
2023-05-06T03:22:16.871Z,3.80
2023-05-06T03:23:19.880Z,3.72
2023-05-06T03:24:23.538Z,2.97
2023-05-06T03:26:29.665Z,3.00
2023-05-06T03:27:32.313Z,3.63
2023-05-06T03:28:37.445Z,3.15
2023-05-06T03:29:40.067Z,3.80
2023-05-06T03:30:43.649Z,4.25
2023-05-06T03:32:50.111Z,3.45
2023-05-06T03:33:53.010Z,4.18
2023-05-06T03:34:56.679Z,3.80
2023-05-06T03:35:59.564Z,4.75
2023-05-06T03:37:03.509Z,3.70
2023-05-06T03:38:06.340Z,4.00
2023-05-06T03:39:10.619Z,2.78
2023-05-06T03:40:13.603Z,4.60
2023-05-06T03:41:18.296Z,4.40
2023-05-06T03:42:20.962Z,3.97
2023-05-06T03:43:24.531Z,3.50
2023-05-06T03:45:32.188Z,2.50
2023-05-06T03:46:34.974Z,2.55
2023-05-06T03:47:38.819Z,2.92
2023-05-06T03:48:41.585Z,3.30
2023-05-06T03:49:45.554Z,3.47
2023-05-06T03:50:48.277Z,3.22
2023-05-06T03:51:53.571Z,3.08
2023-05-06T03:52:56.440Z,2.90
2023-05-06T03:54:00.360Z,3.15
2023-05-06T03:55:03.619Z,3.25
2023-05-06T03:56:08.196Z,2.72
2023-05-06T03:57:10.948Z,3.20
2023-05-06T03:58:14.794Z,3.10
2023-05-06T03:59:17.771Z,3.78
2023-05-06T04:00:24.037Z,3.22
2023-05-06T04:01:26.798Z,3.63
2023-05-06T04:02:30.842Z,4.45
2023-05-06T04:03:33.886Z,3.63
2023-05-06T04:04:37.712Z,4.30
2023-05-06T04:05:40.677Z,3.92
2023-05-06T04:06:45.110Z,4.47
2023-05-06T04:07:47.828Z,3.67
2023-05-06T04:09:50.081Z,4.40
2023-05-06T04:11:16.793Z,4.65
2023-05-06T04:13:19.920Z,4.72
2023-05-06T04:15:23.532Z,5.30
2023-05-06T04:16:46.376Z,7.93
2023-05-06T04:18:49.674Z,5.78
2023-05-06T04:20:52.372Z,7.88
2023-05-06T04:22:54.952Z,5.60
2023-05-06T04:24:57.894Z,6.93
2023-05-06T04:27:00.184Z,7.57
2023-05-06T04:29:02.525Z,8.80
2023-05-06T04:31:08.878Z,8.57
2023-05-06T04:33:11.321Z,9.23
2023-05-06T04:35:13.781Z,8.10
2023-05-06T04:37:16.381Z,10.50
2023-05-06T04:39:18.579Z,8.82
2023-05-06T04:41:22.413Z,9.00
2023-05-06T04:43:24.925Z,5.50
2023-05-06T04:45:27.616Z,8.48
2023-05-06T04:47:32.398Z,6.05
2023-05-06T04:49:35.253Z,7.13
2023-05-06T04:51:37.496Z,5.38
2023-05-06T04:53:41.207Z,8.10
2023-05-06T04:55:43.787Z,4.85
2023-05-06T04:57:46.174Z,4.93
2023-05-06T04:59:48.631Z,4.60
2023-05-06T05:01:52.316Z,5.10
2023-05-06T05:03:55.031Z,6.18
2023-05-06T05:05:57.360Z,6.72
2023-05-06T05:07:59.729Z,5.60
2023-05-06T05:10:01.934Z,5.47
2023-05-06T05:12:07.041Z,5.82
2023-05-06T05:14:09.399Z,5.30
2023-05-06T05:16:11.932Z,6.38
2023-05-06T05:18:15.654Z,6.18
2023-05-06T05:20:18.213Z,4.90
2023-05-06T05:22:20.415Z,6.07
2023-05-06T05:24:22.682Z,5.50
2023-05-06T05:26:24.906Z,5.95
2023-05-06T05:28:27.219Z,5.18
2023-05-06T05:30:29.495Z,6.35
2023-05-06T05:32:33.248Z,5.53
2023-05-06T05:34:35.593Z,5.78
2023-05-06T05:36:37.993Z,5.30
2023-05-06T05:38:40.970Z,6.20
2023-05-06T05:40:43.541Z,5.75
2023-05-06T05:42:46.264Z,5.78
2023-05-06T05:44:48.539Z,5.10
2023-05-06T05:46:51.342Z,3.75
2023-05-06T05:48:55.308Z,4.50
2023-05-06T05:50:57.897Z,4.05
2023-05-06T05:53:00.256Z,4.22
2023-05-06T05:55:02.559Z,5.63
2023-05-06T05:57:07.152Z,6.00
2023-05-06T05:59:10.299Z,6.15
2023-05-06T06:01:13.326Z,5.95
2023-05-06T06:03:17.125Z,5.00
2023-05-06T06:05:19.492Z,5.88
2023-05-06T06:07:21.912Z,6.13
2023-05-06T06:09:24.199Z,5.38
2023-05-06T06:11:27.176Z,5.57
2023-05-06T06:13:30.048Z,5.10
2023-05-06T06:15:32.596Z,5.95
2023-05-06T06:17:35.134Z,5.22
2023-05-06T06:19:38.930Z,5.30
2023-05-06T06:21:41.354Z,4.15
2023-05-06T06:23:43.662Z,4.75
2023-05-06T06:25:46.222Z,4.57
2023-05-06T06:27:48.608Z,4.72
2023-05-06T06:29:51.613Z,6.35
2023-05-06T06:31:56.205Z,4.82
2023-05-06T06:34:00.008Z,3.83
2023-05-06T06:36:02.562Z,3.63
2023-05-06T06:38:05.057Z,4.10
2023-05-06T06:40:08.057Z,27.52
2023-05-06T06:50:51.032Z,2.00
2023-05-06T06:53:31.469Z,1.85
2023-05-06T06:54:34.198Z,1.33
2023-05-06T06:55:37.907Z,1.55
2023-05-06T06:56:40.833Z,1.63
2023-05-06T06:57:44.431Z,1.60
2023-05-06T06:59:52.670Z,1.85
2023-05-06T07:00:55.278Z,1.70
2023-05-06T07:01:59.176Z,1.83
2023-05-06T07:03:01.860Z,1.90
2023-05-06T07:04:07.250Z,1.83
2023-05-06T07:05:10.696Z,1.73
2023-05-06T07:06:15.000Z,2.20
2023-05-06T07:07:17.629Z,2.40
2023-05-06T07:08:22.543Z,2.20
2023-05-06T07:09:27.003Z,1.98
2023-05-06T07:10:30.926Z,1.80
2023-05-06T07:11:33.731Z,2.13
2023-05-06T07:12:37.954Z,2.10
2023-05-06T07:13:40.661Z,1.70
2023-05-06T07:14:44.620Z,1.52
2023-05-06T07:15:47.337Z,1.90
2023-05-06T07:16:51.751Z,2.00
2023-05-06T07:17:54.716Z,2.10
2023-05-06T07:18:58.501Z,2.03
2023-05-06T07:20:01.120Z,1.85
2023-05-06T07:21:04.871Z,1.88
2023-05-06T07:22:07.452Z,1.92
2023-05-06T07:23:11.114Z,1.80
2023-05-06T07:25:18.732Z,2.50
2023-05-06T07:26:21.846Z,2.20
2023-05-06T07:27:27.529Z,1.92
2023-05-06T07:28:31.766Z,2.30
2023-05-06T07:29:35.916Z,2.13
2023-05-06T07:30:40.076Z,1.98
2023-05-06T07:31:42.683Z,1.85
2023-05-06T07:32:46.564Z,2.08
2023-05-06T07:33:49.190Z,2.10
2023-05-06T07:34:52.964Z,1.90
2023-05-06T07:36:58.843Z,2.05
2023-05-06T07:39:05.033Z,2.10
2023-05-06T07:40:09.786Z,1.98
2023-05-06T07:41:13.744Z,1.95
2023-05-06T07:42:17.671Z,1.98
2023-05-06T07:43:20.255Z,2.00
2023-05-06T07:44:24.016Z,1.70
2023-05-06T07:45:27.871Z,2.08
2023-05-06T07:46:30.807Z,1.95
2023-05-06T07:47:35.288Z,2.05
2023-05-06T07:48:38.092Z,2.00
2023-05-06T07:49:41.796Z,2.10
2023-05-06T07:50:45.549Z,1.85
2023-05-06T07:51:48.119Z,2.15
2023-05-06T07:52:52.000Z,2.00
2023-05-06T07:53:54.575Z,2.05
2023-05-06T07:54:58.473Z,2.05
2023-05-06T07:56:02.891Z,1.83
2023-05-06T07:57:08.098Z,1.80
2023-05-06T07:58:11.696Z,1.80
2023-05-06T07:59:15.877Z,1.90
2023-05-06T08:00:19.430Z,1.60
2023-05-06T08:02:25.978Z,2.05
2023-05-06T08:03:30.230Z,1.50
2023-05-06T08:04:32.996Z,1.70
2023-05-06T08:05:36.823Z,1.85
2023-05-06T08:07:44.036Z,1.70
2023-05-06T08:08:47.632Z,1.70
2023-05-06T08:09:51.582Z,1.60
2023-05-06T08:10:54.423Z,1.90
2023-05-06T08:11:58.599Z,1.70
2023-05-06T08:13:03.309Z,1.60
2023-05-06T08:14:07.005Z,1.75
2023-05-06T08:16:14.656Z,1.75
2023-05-06T08:17:17.649Z,1.73
2023-05-06T08:18:23.191Z,1.90
2023-05-06T08:19:29.425Z,1.73
2023-05-06T08:20:33.311Z,1.60
2023-05-06T08:21:36.275Z,1.58
2023-05-06T08:22:40.882Z,1.80
2023-05-06T08:23:43.603Z,1.42
2023-05-06T08:24:47.367Z,1.30
2023-05-06T08:25:50.439Z,1.55
2023-05-06T08:26:57.380Z,1.90
2023-05-06T08:28:00.336Z,1.60
2023-05-06T08:29:05.526Z,1.67
2023-05-06T08:30:09.987Z,1.80
2023-05-06T08:31:14.130Z,1.58
2023-05-06T08:32:17.311Z,1.40
2023-05-06T08:33:21.560Z,1.42
2023-05-06T08:34:24.763Z,1.75
2023-05-06T08:35:28.609Z,1.95
2023-05-06T08:36:31.517Z,1.58
2023-05-06T08:37:36.034Z,1.50
2023-05-06T08:38:38.750Z,1.38
2023-05-06T08:39:42.586Z,1.50
2023-05-06T08:40:45.772Z,1.20
2023-05-06T08:41:52.539Z,1.50
2023-05-06T08:42:57.973Z,1.45
2023-05-06T08:44:06.895Z,1.58
2023-05-06T08:45:11.786Z,1.42
2023-05-06T08:46:15.917Z,1.30
2023-05-06T08:47:19.415Z,1.30
2023-05-06T08:48:23.364Z,1.70
2023-05-06T08:49:26.440Z,1.50
2023-05-06T08:50:30.542Z,1.60
2023-05-06T08:51:35.559Z,1.63
2023-05-06T08:52:39.954Z,1.42
2023-05-06T08:53:47.823Z,1.75
2023-05-06T08:54:58.155Z,1.40
2023-05-06T08:56:04.345Z,1.50
2023-05-06T08:57:12.162Z,1.33
2023-05-06T08:58:17.640Z,1.52
2023-05-06T08:59:27.035Z,1.40
2023-05-06T09:00:34.954Z,1.40
2023-05-06T09:01:38.144Z,1.65
2023-05-06T09:02:43.546Z,1.52
2023-05-06T09:03:48.571Z,1.45
2023-05-06T09:04:54.799Z,1.55
2023-05-06T09:05:58.392Z,1.60
2023-05-06T09:08:05.168Z,1.60
2023-05-06T09:09:09.070Z,1.75
2023-05-06T09:10:14.542Z,1.55
2023-05-06T09:11:29.587Z,1.30
2023-05-06T09:13:01.511Z,1.50
2023-05-06T09:14:10.234Z,1.73
2023-05-06T09:15:15.831Z,1.50
2023-05-06T09:16:29.068Z,1.55
2023-05-06T09:17:34.621Z,1.90
2023-05-06T09:18:37.662Z,1.40
2023-05-06T09:20:35.227Z,1.80
2023-05-06T09:23:45.042Z,1.90
2023-05-06T09:24:56.569Z,1.90
2023-05-06T09:26:04.202Z,1.50
2023-05-06T09:27:08.432Z,1.48
2023-05-06T09:28:15.626Z,1.50
2023-05-06T09:29:18.465Z,1.80
2023-05-06T09:30:27.764Z,1.50
2023-05-06T09:31:47.962Z,1.50
2023-05-06T09:32:55.225Z,1.77
2023-05-06T09:34:02.098Z,1.75
2023-05-06T09:35:06.971Z,1.60
2023-05-06T09:36:13.686Z,1.70
2023-05-06T09:37:17.735Z,1.80
2023-05-06T09:38:22.091Z,1.60
2023-05-06T09:39:29.369Z,1.55
2023-05-06T09:40:32.480Z,1.60
2023-05-06T09:41:37.571Z,1.73
2023-05-06T09:42:40.639Z,1.80
2023-05-06T09:43:49.245Z,1.60
2023-05-06T09:44:55.817Z,1.90
2023-05-06T09:46:00.264Z,1.80
2023-05-06T09:47:04.651Z,2.25
2023-05-06T09:48:09.877Z,1.90
2023-05-06T09:49:15.414Z,2.15
2023-05-06T09:50:19.621Z,1.60
2023-05-06T09:51:23.094Z,2.25
2023-05-06T09:52:28.833Z,2.13
2023-05-06T09:53:33.386Z,2.03
2023-05-06T09:54:39.425Z,1.80
2023-05-06T09:55:43.201Z,1.95
2023-05-06T09:57:54.296Z,2.05
2023-05-06T09:58:58.884Z,1.88
2023-05-06T10:00:07.458Z,2.17
2023-05-06T10:01:32.460Z,1.70
2023-05-06T10:02:41.898Z,1.90
2023-05-06T10:03:47.858Z,1.90
2023-05-06T10:04:51.662Z,1.88
2023-05-06T10:05:57.642Z,2.95
2023-05-06T10:07:04.266Z,2.40
2023-05-06T10:08:10.997Z,2.10
2023-05-06T10:09:14.835Z,1.90
2023-05-06T10:10:21.455Z,2.15
2023-05-06T10:11:26.669Z,2.25
2023-05-06T10:12:31.257Z,2.63
2023-05-06T10:13:35.831Z,2.35
2023-05-06T10:14:40.288Z,2.20
2023-05-06T10:15:45.161Z,2.30
2023-05-06T10:16:51.146Z,2.33
2023-05-06T10:17:54.670Z,2.70
2023-05-06T10:19:00.170Z,3.22
2023-05-06T10:20:05.082Z,2.88
2023-05-06T10:21:18.776Z,3.20
2023-05-06T10:22:34.269Z,2.70
2023-05-06T10:23:44.767Z,2.30
2023-05-06T10:24:56.351Z,2.35
2023-05-06T10:26:08.028Z,2.10
2023-05-06T10:27:13.173Z,2.95
2023-05-06T10:28:25.697Z,2.53
2023-05-06T10:29:37.855Z,3.38
2023-05-06T10:30:42.684Z,2.33
2023-05-06T10:31:50.605Z,2.10
2023-05-06T10:32:57.612Z,2.10
2023-05-06T10:34:04.511Z,2.20
2023-05-06T10:35:13.786Z,2.38
2023-05-06T10:36:20.699Z,2.38
2023-05-06T10:37:27.352Z,2.72
2023-05-06T10:38:34.266Z,2.60
2023-05-06T10:39:42.123Z,2.20
2023-05-06T10:40:46.220Z,2.08
2023-05-06T10:41:52.368Z,2.30
2023-05-06T10:43:21.147Z,2.08
2023-05-06T10:44:58.792Z,2.15
2023-05-06T10:46:03.808Z,2.20
2023-05-06T10:47:09.337Z,2.35
2023-05-06T10:48:12.988Z,2.13
2023-05-06T10:49:21.116Z,2.00
2023-05-06T10:50:29.247Z,2.30
2023-05-06T10:51:34.051Z,1.90
2023-05-06T10:52:45.068Z,1.70
2023-05-06T10:54:13.187Z,2.08
2023-05-06T10:55:31.064Z,2.15
2023-05-06T10:56:37.294Z,1.90
2023-05-06T10:57:43.074Z,1.67
2023-05-06T10:58:49.677Z,1.65
2023-05-06T10:59:55.029Z,1.80
2023-05-06T11:00:59.825Z,1.73
2023-05-06T11:02:09.875Z,2.13
2023-05-06T11:03:15.461Z,1.90
2023-05-06T11:04:20.918Z,1.42
2023-05-06T11:05:26.047Z,1.80
2023-05-06T11:06:38.482Z,2.00
2023-05-06T11:07:42.671Z,1.88
2023-05-06T11:08:57.432Z,1.80
2023-05-06T11:10:04.273Z,2.00
2023-05-06T11:11:41.281Z,2.50
2023-05-06T11:12:49.424Z,2.53
2023-05-06T11:13:54.597Z,2.55
2023-05-06T11:15:21.613Z,2.40
2023-05-06T11:16:49.137Z,2.40
2023-05-06T11:18:53.165Z,2.72
2023-05-06T11:21:29.556Z,2.50
2023-05-06T11:22:41.352Z,2.72
2023-05-06T11:24:13.659Z,2.10
2023-05-06T11:25:41.539Z,1.95
2023-05-06T11:26:44.705Z,1.70
2023-05-06T11:27:51.137Z,1.85
2023-05-06T11:28:54.180Z,2.30
2023-05-06T11:29:58.372Z,1.65
2023-05-06T11:31:02.273Z,2.00
2023-05-06T11:32:09.242Z,1.92
2023-05-06T11:33:18.360Z,1.75
2023-05-06T11:34:26.307Z,2.20
2023-05-06T11:35:36.766Z,2.08
2023-05-06T11:36:55.155Z,2.15
2023-05-06T11:37:59.389Z,2.20
2023-05-06T11:39:08.547Z,2.20
2023-05-06T11:40:18.739Z,2.35
2023-05-06T11:41:23.731Z,2.40
2023-05-06T11:42:28.637Z,2.00
2023-05-06T11:43:33.487Z,2.10
2023-05-06T11:44:39.050Z,2.05
2023-05-06T11:45:43.237Z,2.30
2023-05-06T11:46:47.286Z,2.17
2023-05-06T11:47:54.899Z,2.10
2023-05-06T11:48:58.682Z,2.10
2023-05-06T11:50:07.877Z,2.47
2023-05-06T11:51:11.409Z,2.13
2023-05-06T11:52:15.384Z,1.73
2023-05-06T11:53:20.114Z,2.42
2023-05-06T11:54:26.471Z,2.47
2023-05-06T11:55:29.331Z,2.53
2023-05-06T11:56:43.168Z,2.28
2023-05-06T11:57:48.058Z,2.20
2023-05-06T11:58:52.954Z,2.45
2023-05-06T11:59:56.851Z,2.67
2023-05-06T12:01:01.462Z,2.60
2023-05-06T12:02:07.168Z,2.60
2023-05-06T12:03:14.824Z,2.95
2023-05-06T12:04:18.909Z,2.80
2023-05-06T12:05:23.560Z,3.08
2023-05-06T12:07:33.362Z,2.88
2023-05-06T12:09:37.384Z,3.03
2023-05-06T12:11:41.616Z,3.50
2023-05-06T12:13:46.238Z,4.63
2023-05-06T12:15:51.362Z,2.75
2023-05-06T12:17:54.488Z,2.58
2023-05-06T12:19:57.208Z,2.53
2023-05-06T12:22:15.674Z,2.63
2023-05-06T12:25:15.844Z,2.50
2023-05-06T12:27:30.465Z,2.80
2023-05-06T12:30:32.521Z,2.90
2023-05-06T12:31:37.125Z,2.63
2023-05-06T12:32:59.266Z,3.08
2023-05-06T12:34:02.177Z,3.05
2023-05-06T12:35:07.756Z,2.47
2023-05-06T12:36:11.266Z,2.90
2023-05-06T12:37:26.198Z,2.80
2023-05-06T12:38:29.226Z,2.95
2023-05-06T12:40:34.685Z,2.67
2023-05-06T12:42:38.722Z,2.95
2023-05-06T12:44:41.788Z,2.80
2023-05-06T12:47:03.010Z,2.92
2023-05-06T12:49:05.956Z,2.60
2023-05-06T12:51:20.811Z,2.97
2023-05-06T12:53:32.659Z,2.92
2023-05-06T12:55:25.879Z,2.60
2023-05-06T12:56:29.393Z,2.70
2023-05-06T13:03:06.762Z,3.38
2023-05-06T13:05:10.134Z,3.10
2023-05-06T13:07:12.836Z,3.30
2023-05-06T13:08:35.024Z,3.20
2023-05-06T13:09:46.990Z,3.72
2023-05-06T13:10:49.954Z,4.20
2023-05-06T13:11:54.000Z,3.28
2023-05-06T13:12:57.107Z,4.20
2023-05-06T13:14:01.566Z,4.60
2023-05-06T13:15:06.496Z,4.47
2023-05-06T13:16:10.283Z,4.63
2023-05-06T13:17:14.904Z,5.13
2023-05-06T13:18:17.677Z,4.55
2023-05-06T13:19:32.526Z,5.05
2023-05-06T13:20:36.868Z,4.32
2023-05-06T13:21:41.784Z,4.15
2023-05-06T13:22:54.188Z,3.95
2023-05-06T13:23:59.636Z,3.05
2023-05-06T13:25:04.287Z,3.80
2023-05-06T13:26:08.827Z,3.22
2023-05-06T13:27:12.719Z,4.60
2023-05-06T13:30:21.753Z,3.70
2023-05-06T13:31:26.354Z,3.45
2023-05-06T13:32:30.605Z,3.80
2023-05-06T13:33:34.532Z,3.60
2023-05-06T13:34:38.526Z,3.55
2023-05-06T13:35:41.539Z,4.30
2023-05-06T13:36:46.916Z,4.15
2023-05-06T13:37:49.699Z,4.03
2023-05-06T13:38:53.601Z,4.28
2023-05-06T13:39:56.595Z,4.72
2023-05-06T13:41:02.126Z,4.07
2023-05-06T13:42:07.490Z,4.53
2023-05-06T13:43:11.720Z,4.45
2023-05-06T13:44:15.623Z,4.38
2023-05-06T13:45:18.387Z,4.38
2023-05-06T13:46:23.513Z,4.55
2023-05-06T13:47:27.129Z,4.38
2023-05-06T13:49:34.957Z,3.67
2023-05-06T13:50:37.969Z,3.75
2023-05-06T13:51:41.846Z,3.75
2023-05-06T13:52:45.152Z,4.10
2023-05-06T13:53:48.939Z,3.92
2023-05-06T13:54:51.827Z,4.30
2023-05-06T13:55:56.031Z,4.35
2023-05-06T13:57:01.768Z,3.83
2023-05-06T13:58:07.055Z,4.30
2023-05-06T13:59:12.025Z,4.18
2023-05-06T14:00:15.943Z,3.70
2023-05-06T14:01:19.922Z,3.97
2023-05-06T14:02:26.187Z,4.53
2023-05-06T14:03:30.330Z,3.85
2023-05-06T14:04:33.009Z,4.03
2023-05-06T14:05:37.273Z,3.65
2023-05-06T14:06:41.171Z,3.80
2023-05-06T14:07:44.294Z,3.40
2023-05-06T14:08:49.630Z,4.15
2023-05-06T14:09:52.538Z,3.47
2023-05-06T14:10:57.089Z,3.17
2023-05-06T14:12:03.080Z,2.83
2023-05-06T14:13:07.270Z,2.97
2023-05-06T14:14:11.458Z,2.70
2023-05-06T14:15:15.335Z,3.67
2023-05-06T14:16:19.572Z,2.65
2023-05-06T14:17:22.392Z,2.60
2023-05-06T14:18:27.331Z,2.92
2023-05-06T14:19:30.427Z,2.85
2023-05-06T14:20:34.615Z,2.72
2023-05-06T14:21:37.449Z,2.70
2023-05-06T14:22:42.952Z,2.83
2023-05-06T14:23:46.936Z,2.50
2023-05-06T14:24:49.848Z,2.47
2023-05-06T14:25:53.830Z,2.38
2023-05-06T14:26:57.206Z,2.45
2023-05-06T14:28:02.596Z,2.80
2023-05-06T14:29:05.564Z,2.45
2023-05-06T14:30:10.257Z,2.72
2023-05-06T14:31:13.241Z,2.50
2023-05-06T14:32:17.345Z,2.30
2023-05-06T14:33:20.552Z,2.38
2023-05-06T14:34:24.799Z,2.63
2023-05-06T14:35:30.182Z,2.50
2023-05-06T14:36:34.113Z,2.33
2023-05-06T14:37:38.108Z,2.75
2023-05-06T14:38:42.107Z,2.28
2023-05-06T14:39:44.937Z,1.90
2023-05-06T14:40:48.859Z,2.08
2023-05-06T14:41:51.678Z,1.85
2023-05-06T14:42:55.444Z,2.30
2023-05-06T14:43:59.939Z,1.83
2023-05-06T14:45:04.259Z,2.10
2023-05-06T14:46:08.154Z,2.10
2023-05-06T14:47:12.216Z,2.45
2023-05-06T14:48:16.301Z,1.90
2023-05-06T14:49:19.059Z,2.17
2023-05-06T14:50:23.544Z,1.83
2023-05-06T14:51:26.216Z,2.00
2023-05-06T14:52:30.095Z,1.77
2023-05-06T14:53:33.146Z,2.20
2023-05-06T14:54:42.394Z,2.10
2023-05-06T14:55:46.751Z,2.10
2023-05-06T14:56:49.871Z,2.58
2023-05-06T14:57:53.738Z,2.70
2023-05-06T14:58:57.666Z,1.90
2023-05-06T15:00:03.760Z,2.17
2023-05-06T15:01:10.005Z,2.40
2023-05-06T15:02:12.768Z,2.42
2023-05-06T15:03:16.925Z,2.00
2023-05-06T15:04:19.721Z,2.35
2023-05-06T15:05:23.672Z,2.15
2023-05-06T15:06:26.658Z,1.90
2023-05-06T15:07:30.687Z,2.40
2023-05-06T15:08:33.589Z,1.98
2023-05-06T15:09:39.758Z,2.22
2023-05-06T15:10:42.555Z,2.38
2023-05-06T15:11:47.065Z,1.67
2023-05-06T15:12:50.956Z,2.42
2023-05-06T15:13:53.855Z,2.10
2023-05-06T15:14:57.752Z,2.10
2023-05-06T15:16:03.523Z,2.50
2023-05-06T15:17:06.620Z,2.53
2023-05-06T15:18:10.870Z,2.10
2023-05-06T15:19:13.692Z,2.35
2023-05-06T15:20:17.676Z,2.30
2023-05-06T15:21:20.997Z,2.60
2023-05-06T15:22:25.063Z,2.35
2023-05-06T15:23:27.859Z,2.28
2023-05-06T15:24:32.095Z,2.20
2023-05-06T15:25:36.534Z,2.10
2023-05-06T15:26:40.844Z,2.20
2023-05-06T15:27:43.677Z,1.90
2023-05-06T15:28:47.681Z,2.00
2023-05-06T15:31:58.200Z,2.10
2023-05-06T15:33:03.259Z,2.42
2023-05-06T15:34:06.359Z,2.20
2023-05-06T15:35:11.095Z,1.90
2023-05-06T15:36:14.066Z,2.10
2023-05-06T15:37:19.503Z,2.25
2023-05-06T15:38:22.413Z,2.08
2023-05-06T15:39:26.333Z,2.30
2023-05-06T15:41:34.208Z,2.15
2023-05-06T15:42:39.353Z,2.00
2023-05-06T15:43:42.180Z,2.50
2023-05-06T15:44:46.639Z,2.20
2023-05-06T15:45:49.503Z,2.20
2023-05-06T15:46:53.365Z,2.70
2023-05-06T15:47:57.874Z,2.40
2023-05-06T15:49:29.503Z,2.47
2023-05-06T15:51:34.511Z,2.30
2023-05-06T15:52:38.444Z,2.00
2023-05-06T15:53:41.765Z,2.30
2023-05-06T15:54:49.742Z,2.40
2023-05-06T15:55:57.316Z,2.33
2023-05-06T15:57:07.896Z,2.40
2023-05-06T15:58:10.905Z,2.22
2023-05-06T15:59:14.899Z,2.10
2023-05-06T16:00:18.298Z,2.53
2023-05-06T16:01:37.655Z,2.55
2023-05-06T16:02:46.779Z,1.98
2023-05-06T16:03:51.317Z,2.30
2023-05-06T16:04:56.143Z,2.22
2023-05-06T16:06:00.307Z,2.35
2023-05-06T16:07:04.813Z,2.15
2023-05-06T16:08:07.671Z,1.95
2023-05-06T16:09:12.173Z,2.50
2023-05-06T16:10:14.947Z,3.45
2023-05-06T16:11:19.280Z,2.50
2023-05-06T16:12:22.236Z,2.03
2023-05-06T16:13:26.404Z,2.28
2023-05-06T16:14:29.344Z,2.20
2023-05-06T16:15:33.104Z,2.20
2023-05-06T16:16:37.130Z,2.63
2023-05-06T16:17:40.789Z,2.17
2023-05-06T16:18:44.690Z,2.10
2023-05-06T16:19:49.151Z,2.40
2023-05-06T16:20:53.349Z,2.67
2023-05-06T16:21:57.345Z,2.55
2023-05-06T16:23:00.199Z,2.35
2023-05-06T16:24:04.787Z,2.50
2023-05-06T16:25:08.164Z,2.20
2023-05-06T16:26:11.935Z,2.30
2023-05-06T16:27:16.225Z,2.53
2023-05-06T16:28:20.057Z,2.40
2023-05-06T16:30:26.470Z,2.45
2023-05-06T16:31:30.507Z,2.28
2023-05-06T16:32:33.300Z,2.42
2023-05-06T16:33:37.352Z,2.30
2023-05-06T16:34:40.870Z,2.10
2023-05-06T16:36:49.441Z,2.28
2023-05-06T16:37:53.392Z,1.95
2023-05-06T16:38:56.132Z,2.30
2023-05-06T16:40:00.070Z,2.40
2023-05-06T16:42:06.350Z,2.60
2023-05-06T16:43:11.989Z,2.25
2023-05-06T16:44:14.668Z,2.45
2023-05-06T16:45:19.455Z,2.28
2023-05-06T16:46:24.266Z,2.60
2023-05-06T16:47:28.420Z,2.45
2023-05-06T16:48:31.370Z,2.13
2023-05-06T16:49:35.448Z,2.83
2023-05-06T16:51:42.916Z,2.20
2023-05-06T16:52:45.808Z,2.75
2023-05-06T16:53:49.605Z,2.28
2023-05-06T16:54:52.331Z,2.67
2023-05-06T16:55:56.343Z,2.60
2023-05-06T16:56:59.105Z,2.50
2023-05-06T16:58:04.293Z,2.40
2023-05-06T16:59:07.300Z,2.60
2023-05-06T17:00:12.627Z,2.25
2023-05-06T17:01:15.827Z,2.50
2023-05-06T17:02:19.795Z,2.28
2023-05-06T17:03:23.123Z,2.83
2023-05-06T17:04:27.189Z,2.90